sensor_id;sensor_type;location;lat;lon;timestamp;pressure;altitude;pressure_sealevel;temperature;humidity
12868;BME280;33517;49.866;8.320;2023-08-06T00:01:54;99548.59;;;16.97;96.48
12868;BME280;33517;49.866;8.320;2023-08-06T00:04:46;99547.44;;;16.93;97.14
12868;BME280;33517;49.866;8.320;2023-08-06T00:07:38;99542.59;;;17.02;96.61
12868;BME280;33517;49.866;8.320;2023-08-06T00:10:29;99543.91;;;17.11;95.26
12868;BME280;33517;49.866;8.320;2023-08-06T00:13:23;99542.19;;;17.16;94.22
12868;BME280;33517;49.866;8.320;2023-08-06T00:16:14;99537.09;;;17.26;93.28
12868;BME280;33517;49.866;8.320;2023-08-06T00:19:06;99526.81;;;17.30;92.33
12868;BME280;33517;49.866;8.320;2023-08-06T00:21:58;99526.09;;;17.23;90.33
12868;BME280;33517;49.866;8.320;2023-08-06T00:24:50;99523.78;;;17.15;90.51
12868;BME280;33517;49.866;8.320;2023-08-06T00:27:43;99524.00;;;17.13;91.14
12868;BME280;33517;49.866;8.320;2023-08-06T00:30:36;99515.69;;;17.10;90.95
12868;BME280;33517;49.866;8.320;2023-08-06T00:33:28;99510.47;;;17.15;91.11
12868;BME280;33517;49.866;8.320;2023-08-06T00:36:20;99508.38;;;17.05;91.31
12868;BME280;33517;49.866;8.320;2023-08-06T00:39:12;99508.38;;;17.05;91.62
12868;BME280;33517;49.866;8.320;2023-08-06T00:42:04;99496.75;;;17.18;90.89
12868;BME280;33517;49.866;8.320;2023-08-06T00:44:56;99494.31;;;17.16;92.01
12868;BME280;33517;49.866;8.320;2023-08-06T00:47:49;99491.06;;;17.14;92.05
12868;BME280;33517;49.866;8.320;2023-08-06T00:50:41;99487.72;;;17.19;91.36
12868;BME280;33517;49.866;8.320;2023-08-06T00:53:33;99486.44;;;17.21;91.40
12868;BME280;33517;49.866;8.320;2023-08-06T00:56:25;99489.22;;;17.26;91.58
12868;BME280;33517;49.866;8.320;2023-08-06T00:59:17;99467.94;;;17.26;91.68
12868;BME280;33517;49.866;8.320;2023-08-06T01:02:09;99469.56;;;17.16;92.55
12868;BME280;33517;49.866;8.320;2023-08-06T01:05:03;99466.22;;;17.09;93.02
12868;BME280;33517;49.866;8.320;2023-08-06T01:08:09;99463.78;;;17.07;93.01
12868;BME280;33517;49.866;8.320;2023-08-06T01:11:16;99457.19;;;17.10;92.21
12868;BME280;33517;49.866;8.320;2023-08-06T01:14:15;99451.78;;;17.05;93.02
12868;BME280;33517;49.866;8.320;2023-08-06T01:17:08;99459.16;;;17.03;93.81
12868;BME280;33517;49.866;8.320;2023-08-06T01:20:02;99458.34;;;17.02;93.80
12868;BME280;33517;49.866;8.320;2023-08-06T01:22:56;99454.78;;;17.08;93.34
12868;BME280;33517;49.866;8.320;2023-08-06T01:25:53;99452.13;;;17.08;93.82
12868;BME280;33517;49.866;8.320;2023-08-06T01:28:54;99457.28;;;17.03;93.33
12868;BME280;33517;49.866;8.320;2023-08-06T01:31:48;99449.91;;;17.05;94.04
12868;BME280;33517;49.866;8.320;2023-08-06T01:34:44;99451.41;;;17.13;93.36
12868;BME280;33517;49.866;8.320;2023-08-06T01:37:37;99446.81;;;17.08;93.96
12868;BME280;33517;49.866;8.320;2023-08-06T01:40:31;99447.25;;;17.05;93.46
12868;BME280;33517;49.866;8.320;2023-08-06T01:43:23;99451.78;;;17.05;93.34
12868;BME280;33517;49.866;8.320;2023-08-06T01:46:15;99456.50;;;17.03;93.78
12868;BME280;33517;49.866;8.320;2023-08-06T01:49:07;99446.69;;;16.92;93.71
12868;BME280;33517;49.866;8.320;2023-08-06T01:51:59;99447.91;;;16.78;94.55
12868;BME280;33517;49.866;8.320;2023-08-06T01:54:51;99443.63;;;16.77;94.92
12868;BME280;33517;49.866;8.320;2023-08-06T01:57:44;99437.16;;;16.84;93.46
12868;BME280;33517;49.866;8.320;2023-08-06T02:00:36;99433.56;;;16.67;95.12
12868;BME280;33517;49.866;8.320;2023-08-06T02:03:28;99439.47;;;16.81;95.30
12868;BME280;33517;49.866;8.320;2023-08-06T02:06:20;99430.94;;;16.90;93.96
12868;BME280;33517;49.866;8.320;2023-08-06T02:09:12;99435.56;;;16.95;94.26
12868;BME280;33517;49.866;8.320;2023-08-06T02:12:04;99428.28;;;16.90;94.86
12868;BME280;33517;49.866;8.320;2023-08-06T02:14:58;99431.28;;;16.94;93.79
12868;BME280;33517;49.866;8.320;2023-08-06T02:17:50;99429.78;;;16.98;94.01
12868;BME280;33517;49.866;8.320;2023-08-06T02:20:42;99429.34;;;17.01;94.02
12868;BME280;33517;49.866;8.320;2023-08-06T02:23:34;99437.41;;;16.94;93.91
12868;BME280;33517;49.866;8.320;2023-08-06T02:26:25;99432.44;;;16.86;94.07
12868;BME280;33517;49.866;8.320;2023-08-06T02:29:17;99432.56;;;16.80;93.87
12868;BME280;33517;49.866;8.320;2023-08-06T02:32:11;99426.44;;;16.79;94.10
12868;BME280;33517;49.866;8.320;2023-08-06T02:35:03;99419.13;;;16.75;94.19
12868;BME280;33517;49.866;8.320;2023-08-06T02:37:55;99407.38;;;16.71;94.30
12868;BME280;33517;49.866;8.320;2023-08-06T02:40:46;99401.91;;;16.66;94.28
12868;BME280;33517;49.866;8.320;2023-08-06T02:43:38;99395.44;;;16.62;94.21
12868;BME280;33517;49.866;8.320;2023-08-06T02:46:30;99400.88;;;16.55;94.55
12868;BME280;33517;49.866;8.320;2023-08-06T02:49:23;99395.22;;;16.63;94.19
12868;BME280;33517;49.866;8.320;2023-08-06T02:52:15;99396.75;;;16.71;94.62
12868;BME280;33517;49.866;8.320;2023-08-06T02:55:07;99391.63;;;16.69;94.34
12868;BME280;33517;49.866;8.320;2023-08-06T02:57:59;99393.38;;;16.75;93.70
12868;BME280;33517;49.866;8.320;2023-08-06T03:01:01;99386.13;;;16.71;93.17
12868;BME280;33517;49.866;8.320;2023-08-06T03:03:53;99372.09;;;16.64;93.84
12868;BME280;33517;49.866;8.320;2023-08-06T03:06:47;99373.78;;;16.46;93.75
12868;BME280;33517;49.866;8.320;2023-08-06T03:09:40;99369.50;;;16.34;94.26
12868;BME280;33517;49.866;8.320;2023-08-06T03:12:32;99369.94;;;16.31;93.89
12868;BME280;33517;49.866;8.320;2023-08-06T03:15:24;99359.56;;;16.41;93.49
12868;BME280;33517;49.866;8.320;2023-08-06T03:18:16;99354.38;;;16.46;92.63
12868;BME280;33517;49.866;8.320;2023-08-06T03:21:07;99367.19;;;16.37;92.04
12868;BME280;33517;49.866;8.320;2023-08-06T03:24:01;99364.50;;;16.26;92.57
12868;BME280;33517;49.866;8.320;2023-08-06T03:26:52;99366.34;;;16.25;92.92
12868;BME280;33517;49.866;8.320;2023-08-06T03:29:44;99364.97;;;16.34;92.66
12868;BME280;33517;49.866;8.320;2023-08-06T03:32:36;99368.13;;;16.43;91.98
12868;BME280;33517;49.866;8.320;2023-08-06T03:35:28;99368.28;;;16.59;91.86
12868;BME280;33517;49.866;8.320;2023-08-06T03:38:20;99367.97;;;16.68;90.88
12868;BME280;33517;49.866;8.320;2023-08-06T03:41:14;99370.16;;;16.71;91.05
12868;BME280;33517;49.866;8.320;2023-08-06T03:44:06;99362.06;;;16.66;91.29
12868;BME280;33517;49.866;8.320;2023-08-06T03:46:58;99361.59;;;16.57;91.23
12868;BME280;33517;49.866;8.320;2023-08-06T03:49:50;99371.38;;;16.45;91.82
12868;BME280;33517;49.866;8.320;2023-08-06T03:52:42;99366.22;;;16.20;94.26
12868;BME280;33517;49.866;8.320;2023-08-06T03:55:33;99367.00;;;16.09;95.27
12868;BME280;33517;49.866;8.320;2023-08-06T03:58:27;99363.97;;;16.06;96.32
12868;BME280;33517;49.866;8.320;2023-08-06T04:01:18;99364.19;;;16.04;97.26
12868;BME280;33517;49.866;8.320;2023-08-06T04:04:10;99362.94;;;16.07;97.82
12868;BME280;33517;49.866;8.320;2023-08-06T04:07:02;99359.63;;;16.11;97.55
12868;BME280;33517;49.866;8.320;2023-08-06T04:09:57;99369.66;;;16.09;98.21
12868;BME280;33517;49.866;8.320;2023-08-06T04:12:49;99363.84;;;16.01;99.39
12868;BME280;33517;49.866;8.320;2023-08-06T04:15:42;99364.75;;;15.95;100.00
12868;BME280;33517;49.866;8.320;2023-08-06T04:18:35;99369.34;;;15.88;100.00
12868;BME280;33517;49.866;8.320;2023-08-06T04:21:27;99366.81;;;15.93;100.00
12868;BME280;33517;49.866;8.320;2023-08-06T04:24:19;99363.25;;;15.99;100.00
12868;BME280;33517;49.866;8.320;2023-08-06T04:27:11;99370.94;;;15.59;100.00
12868;BME280;33517;49.866;8.320;2023-08-06T04:30:05;99363.13;;;15.46;100.00
12868;BME280;33517;49.866;8.320;2023-08-06T04:32:58;99364.41;;;15.37;100.00
12868;BME280;33517;49.866;8.320;2023-08-06T04:35:53;99358.09;;;15.38;100.00
12868;BME280;33517;49.866;8.320;2023-08-06T04:38:45;99351.13;;;15.43;100.00
12868;BME280;33517;49.866;8.320;2023-08-06T04:41:38;99352.75;;;15.44;100.00
12868;BME280;33517;49.866;8.320;2023-08-06T04:44:29;99354.72;;;15.49;100.00
12868;BME280;33517;49.866;8.320;2023-08-06T04:47:21;99345.38;;;15.46;100.00
12868;BME280;33517;49.866;8.320;2023-08-06T04:50:14;99351.66;;;15.52;100.00
12868;BME280;33517;49.866;8.320;2023-08-06T04:53:06;99353.38;;;15.40;100.00
12868;BME280;33517;49.866;8.320;2023-08-06T04:55:58;99352.44;;;15.52;100.00
12868;BME280;33517;49.866;8.320;2023-08-06T04:58:50;99351.06;;;15.50;100.00
12868;BME280;33517;49.866;8.320;2023-08-06T05:01:42;99353.91;;;15.48;100.00
12868;BME280;33517;49.866;8.320;2023-08-06T05:04:34;99357.25;;;15.44;100.00
12868;BME280;33517;49.866;8.320;2023-08-06T05:07:27;99354.94;;;15.47;100.00
12868;BME280;33517;49.866;8.320;2023-08-06T05:10:19;99353.13;;;15.48;100.00
12868;BME280;33517;49.866;8.320;2023-08-06T05:13:11;99354.88;;;15.54;100.00
12868;BME280;33517;49.866;8.320;2023-08-06T05:16:03;99350.13;;;15.56;100.00
12868;BME280;33517;49.866;8.320;2023-08-06T05:18:55;99346.53;;;15.68;100.00
12868;BME280;33517;49.866;8.320;2023-08-06T05:21:47;99348.13;;;15.69;100.00
12868;BME280;33517;49.866;8.320;2023-08-06T05:24:40;99346.28;;;15.88;100.00
12868;BME280;33517;49.866;8.320;2023-08-06T05:27:32;99345.81;;;15.91;100.00
12868;BME280;33517;49.866;8.320;2023-08-06T05:30:24;99348.63;;;16.08;100.00
12868;BME280;33517;49.866;8.320;2023-08-06T05:33:15;99350.66;;;16.24;100.00
12868;BME280;33517;49.866;8.320;2023-08-06T05:36:07;99354.13;;;16.24;100.00
12868;BME280;33517;49.866;8.320;2023-08-06T05:38:59;99352.63;;;16.28;100.00
12868;BME280;33517;49.866;8.320;2023-08-06T05:41:52;99357.78;;;16.23;100.00
12868;BME280;33517;49.866;8.320;2023-08-06T05:44:45;99361.00;;;16.14;100.00
12868;BME280;33517;49.866;8.320;2023-08-06T05:47:37;99354.06;;;16.01;100.00
12868;BME280;33517;49.866;8.320;2023-08-06T05:50:29;99355.31;;;15.99;100.00
12868;BME280;33517;49.866;8.320;2023-08-06T05:53:21;99360.97;;;16.02;100.00
12868;BME280;33517;49.866;8.320;2023-08-06T05:56:12;99360.38;;;16.00;100.00
12868;BME280;33517;49.866;8.320;2023-08-06T05:59:06;99360.38;;;16.00;100.00
12868;BME280;33517;49.866;8.320;2023-08-06T06:01:57;99370.56;;;16.03;100.00
12868;BME280;33517;49.866;8.320;2023-08-06T06:04:49;99365.53;;;16.13;100.00
12868;BME280;33517;49.866;8.320;2023-08-06T06:07:41;99367.50;;;16.29;100.00
12868;BME280;33517;49.866;8.320;2023-08-06T06:10:34;99370.44;;;16.39;100.00
12868;BME280;33517;49.866;8.320;2023-08-06T06:13:26;99361.13;;;16.48;100.00
12868;BME280;33517;49.866;8.320;2023-08-06T06:16:19;99366.53;;;16.53;100.00
12868;BME280;33517;49.866;8.320;2023-08-06T06:19:11;99362.19;;;16.59;100.00
12868;BME280;33517;49.866;8.320;2023-08-06T06:22:03;99368.09;;;16.61;100.00
12868;BME280;33517;49.866;8.320;2023-08-06T06:24:55;99368.75;;;16.56;100.00
12868;BME280;33517;49.866;8.320;2023-08-06T06:27:47;99375.22;;;16.61;100.00
12868;BME280;33517;49.866;8.320;2023-08-06T06:30:41;99371.31;;;16.75;100.00
12868;BME280;33517;49.866;8.320;2023-08-06T06:33:34;99370.88;;;16.89;100.00
12868;BME280;33517;49.866;8.320;2023-08-06T06:36:26;99378.25;;;16.99;99.80
12868;BME280;33517;49.866;8.320;2023-08-06T06:39:18;99381.03;;;16.92;98.98
12868;BME280;33517;49.866;8.320;2023-08-06T06:42:10;99382.19;;;17.08;98.92
12868;BME280;33517;49.866;8.320;2023-08-06T06:45:02;99375.94;;;17.14;98.18
12868;BME280;33517;49.866;8.320;2023-08-06T06:47:54;99375.25;;;17.07;97.54
12868;BME280;33517;49.866;8.320;2023-08-06T06:50:48;99379.75;;;16.83;97.98
12868;BME280;33517;49.866;8.320;2023-08-06T06:53:40;99377.91;;;16.61;99.06
12868;BME280;33517;49.866;8.320;2023-08-06T06:56:32;99371.75;;;16.60;100.00
12868;BME280;33517;49.866;8.320;2023-08-06T06:59:23;99373.97;;;16.63;100.00
12868;BME280;33517;49.866;8.320;2023-08-06T07:02:15;99375.03;;;16.44;100.00
12868;BME280;33517;49.866;8.320;2023-08-06T07:05:07;99380.81;;;16.41;100.00
12868;BME280;33517;49.866;8.320;2023-08-06T07:08:01;99379.47;;;16.50;100.00
12868;BME280;33517;49.866;8.320;2023-08-06T07:10:59;99377.41;;;16.52;100.00
12868;BME280;33517;49.866;8.320;2023-08-06T07:13:56;99385.59;;;16.50;100.00
12868;BME280;33517;49.866;8.320;2023-08-06T07:16:48;99382.13;;;16.50;100.00
12868;BME280;33517;49.866;8.320;2023-08-06T07:19:40;99382.28;;;16.67;100.00
12868;BME280;33517;49.866;8.320;2023-08-06T07:22:31;99381.38;;;16.96;100.00
12868;BME280;33517;49.866;8.320;2023-08-06T07:25:25;99384.75;;;17.03;100.00
12868;BME280;33517;49.866;8.320;2023-08-06T07:28:17;99371.88;;;17.23;99.26
12868;BME280;33517;49.866;8.320;2023-08-06T07:31:09;99375.00;;;17.55;97.86
12868;BME280;33517;49.866;8.320;2023-08-06T07:34:01;99380.44;;;17.88;95.50
12868;BME280;33517;49.866;8.320;2023-08-06T07:36:52;99381.31;;;17.93;93.45
12868;BME280;33517;49.866;8.320;2023-08-06T07:39:44;99382.97;;;17.94;93.84
12868;BME280;33517;49.866;8.320;2023-08-06T07:42:37;99378.97;;;18.08;94.10
12868;BME280;33517;49.866;8.320;2023-08-06T07:45:32;99388.28;;;18.51;91.17
12868;BME280;33517;49.866;8.320;2023-08-06T07:48:25;99386.34;;;18.96;88.25
12868;BME280;33517;49.866;8.320;2023-08-06T07:51:16;99374.53;;;19.68;87.14
12868;BME280;33517;49.866;8.320;2023-08-06T07:54:08;99381.63;;;20.06;83.86
12868;BME280;33517;49.866;8.320;2023-08-06T07:57:00;99375.38;;;21.17;80.35
12868;BME280;33517;49.866;8.320;2023-08-06T07:59:53;99380.84;;;21.89;77.23
12868;BME280;33517;49.866;8.320;2023-08-06T08:02:45;99380.31;;;21.92;72.41
12868;BME280;33517;49.866;8.320;2023-08-06T08:05:37;99382.72;;;21.93;73.88
12868;BME280;33517;49.866;8.320;2023-08-06T08:08:29;99378.22;;;23.20;70.49
12868;BME280;33517;49.866;8.320;2023-08-06T08:11:21;99370.75;;;23.02;70.69
12868;BME280;33517;49.866;8.320;2023-08-06T08:14:13;99369.47;;;22.64;68.51
12868;BME280;33517;49.866;8.320;2023-08-06T08:17:07;99360.34;;;21.11;70.59
12868;BME280;33517;49.866;8.320;2023-08-06T08:19:58;99354.97;;;20.69;74.60
12868;BME280;33517;49.866;8.320;2023-08-06T08:22:50;99363.91;;;20.22;76.43
12868;BME280;33517;49.866;8.320;2023-08-06T08:25:42;99350.19;;;20.40;76.62
12868;BME280;33517;49.866;8.320;2023-08-06T08:28:34;99348.69;;;20.90;74.27
12868;BME280;33517;49.866;8.320;2023-08-06T08:31:26;99351.19;;;22.71;68.90
12868;BME280;33517;49.866;8.320;2023-08-06T08:34:20;99348.22;;;22.77;66.55
12868;BME280;33517;49.866;8.320;2023-08-06T08:37:13;99347.13;;;22.28;67.98
12868;BME280;33517;49.866;8.320;2023-08-06T08:40:06;99338.84;;;21.38;70.63
12868;BME280;33517;49.866;8.320;2023-08-06T08:42:58;99340.47;;;20.60;72.61
12868;BME280;33517;49.866;8.320;2023-08-06T08:45:51;99335.28;;;20.17;74.42
12868;BME280;33517;49.866;8.320;2023-08-06T08:48:45;99336.72;;;20.03;75.79
12868;BME280;33517;49.866;8.320;2023-08-06T08:51:39;99332.63;;;20.49;75.56
12868;BME280;33517;49.866;8.320;2023-08-06T08:54:32;99324.88;;;20.84;69.52
12868;BME280;33517;49.866;8.320;2023-08-06T08:57:24;99328.03;;;21.18;70.53
12868;BME280;33517;49.866;8.320;2023-08-06T09:00:16;99341.34;;;21.07;70.13
12868;BME280;33517;49.866;8.320;2023-08-06T09:03:08;99338.25;;;20.89;71.60
12868;BME280;33517;49.866;8.320;2023-08-06T09:06:01;99331.19;;;20.36;73.53
12868;BME280;33517;49.866;8.320;2023-08-06T09:09:01;99336.63;;;19.93;75.20
12868;BME280;33517;49.866;8.320;2023-08-06T09:11:59;99344.25;;;19.36;77.23
12868;BME280;33517;49.866;8.320;2023-08-06T09:14:51;99345.63;;;18.84;80.57
12868;BME280;33517;49.866;8.320;2023-08-06T09:17:43;99344.81;;;18.67;82.15
12868;BME280;33517;49.866;8.320;2023-08-06T09:20:35;99335.53;;;18.69;83.10
12868;BME280;33517;49.866;8.320;2023-08-06T09:23:28;99330.84;;;18.76;82.74
12868;BME280;33517;49.866;8.320;2023-08-06T09:26:22;99332.22;;;18.79;82.35
12868;BME280;33517;49.866;8.320;2023-08-06T09:29:15;99331.56;;;18.88;82.69
12868;BME280;33517;49.866;8.320;2023-08-06T09:32:07;99330.41;;;19.39;81.58
12868;BME280;33517;49.866;8.320;2023-08-06T09:34:59;99334.50;;;19.95;79.63
12868;BME280;33517;49.866;8.320;2023-08-06T09:37:51;99327.09;;;20.60;78.19
12868;BME280;33517;49.866;8.320;2023-08-06T09:40:43;99333.84;;;21.61;71.85
12868;BME280;33517;49.866;8.320;2023-08-06T09:43:43;99336.41;;;22.18;69.20
12868;BME280;33517;49.866;8.320;2023-08-06T09:46:35;99342.09;;;21.45;69.99
12868;BME280;33517;49.866;8.320;2023-08-06T09:49:28;99343.53;;;20.42;74.89
12868;BME280;33517;49.866;8.320;2023-08-06T09:52:20;99346.03;;;20.00;76.47
12868;BME280;33517;49.866;8.320;2023-08-06T09:55:12;99354.38;;;19.56;78.86
12868;BME280;33517;49.866;8.320;2023-08-06T09:58:05;99346.34;;;19.34;80.48
12868;BME280;33517;49.866;8.320;2023-08-06T10:00:59;99349.03;;;19.34;82.18
12868;BME280;33517;49.866;8.320;2023-08-06T10:03:52;99356.88;;;20.42;80.88
12868;BME280;33517;49.866;8.320;2023-08-06T10:06:46;99347.28;;;24.11;68.65
12868;BME280;33517;49.866;8.320;2023-08-06T10:09:39;99354.69;;;26.05;60.35
12868;BME280;33517;49.866;8.320;2023-08-06T10:12:33;99362.91;;;29.21;50.50
12868;BME280;33517;49.866;8.320;2023-08-06T10:15:26;99362.84;;;28.59;50.52
12868;BME280;33517;49.866;8.320;2023-08-06T10:18:20;99366.25;;;27.66;51.97
12868;BME280;33517;49.866;8.320;2023-08-06T10:21:13;99376.34;;;24.77;55.39
12868;BME280;33517;49.866;8.320;2023-08-06T10:24:07;99373.94;;;23.09;60.69
12868;BME280;33517;49.866;8.320;2023-08-06T10:27:00;99371.06;;;23.79;60.80
12868;BME280;33517;49.866;8.320;2023-08-06T10:29:52;99370.97;;;23.40;61.38
12868;BME280;33517;49.866;8.320;2023-08-06T10:32:47;99377.75;;;22.77;62.40
12868;BME280;33517;49.866;8.320;2023-08-06T10:35:42;99366.91;;;23.48;62.74
12868;BME280;33517;49.866;8.320;2023-08-06T10:38:44;99368.25;;;28.59;47.28
12868;BME280;33517;49.866;8.320;2023-08-06T10:41:36;99373.69;;;30.50;43.00
12868;BME280;33517;49.866;8.320;2023-08-06T10:44:28;99375.34;;;27.84;46.82
12868;BME280;33517;49.866;8.320;2023-08-06T10:47:26;99374.81;;;25.51;52.42
12868;BME280;33517;49.866;8.320;2023-08-06T10:50:18;99381.47;;;24.39;55.29
12868;BME280;33517;49.866;8.320;2023-08-06T10:53:11;99388.44;;;23.33;58.55
12868;BME280;33517;49.866;8.320;2023-08-06T10:56:12;99385.88;;;21.80;60.46
12868;BME280;33517;49.866;8.320;2023-08-06T10:59:04;99406.41;;;20.81;65.69
12868;BME280;33517;49.866;8.320;2023-08-06T11:01:56;99418.13;;;20.44;66.10
12868;BME280;33517;49.866;8.320;2023-08-06T11:04:48;99404.41;;;20.35;66.92
12868;BME280;33517;49.866;8.320;2023-08-06T11:07:41;99406.03;;;20.14;67.63
12868;BME280;33517;49.866;8.320;2023-08-06T11:10:34;99416.63;;;20.58;67.37
12868;BME280;33517;49.866;8.320;2023-08-06T11:13:26;99428.25;;;20.73;66.55
12868;BME280;33517;49.866;8.320;2023-08-06T11:16:19;99426.31;;;20.64;67.24
12868;BME280;33517;49.866;8.320;2023-08-06T11:19:11;99423.72;;;21.00;66.88
12868;BME280;33517;49.866;8.320;2023-08-06T11:22:05;99435.13;;;20.96;66.42
12868;BME280;33517;49.866;8.320;2023-08-06T11:24:57;99452.38;;;20.25;69.77
12868;BME280;33517;49.866;8.320;2023-08-06T11:27:52;99452.00;;;19.52;73.88
12868;BME280;33517;49.866;8.320;2023-08-06T11:30:44;99467.44;;;18.83;78.29
12868;BME280;33517;49.866;8.320;2023-08-06T11:33:36;99476.13;;;18.34;82.39
12868;BME280;33517;49.866;8.320;2023-08-06T11:36:29;99465.28;;;18.12;83.91
12868;BME280;33517;49.866;8.320;2023-08-06T11:39:21;99473.16;;;18.19;85.62
12868;BME280;33517;49.866;8.320;2023-08-06T11:42:13;99477.88;;;18.28;83.16
12868;BME280;33517;49.866;8.320;2023-08-06T11:45:07;99472.34;;;18.75;83.22
12868;BME280;33517;49.866;8.320;2023-08-06T11:48:00;99473.03;;;19.15;80.30
12868;BME280;33517;49.866;8.320;2023-08-06T11:50:54;99476.31;;;18.72;80.64
12868;BME280;33517;49.866;8.320;2023-08-06T11:53:48;99492.75;;;18.53;80.59
12868;BME280;33517;49.866;8.320;2023-08-06T11:56:40;99494.19;;;18.32;81.08
12868;BME280;33517;49.866;8.320;2023-08-06T11:59:33;99496.66;;;18.22;79.76
12868;BME280;33517;49.866;8.320;2023-08-06T12:02:31;99505.03;;;18.54;77.76
12868;BME280;33517;49.866;8.320;2023-08-06T12:05:29;99512.09;;;19.38;74.75
12868;BME280;33517;49.866;8.320;2023-08-06T12:08:26;99505.84;;;20.52;70.81
12868;BME280;33517;49.866;8.320;2023-08-06T12:11:21;99509.78;;;20.44;69.33
12868;BME280;33517;49.866;8.320;2023-08-06T12:14:13;99514.25;;;20.17;70.76
12868;BME280;33517;49.866;8.320;2023-08-06T12:17:05;99524.94;;;19.95;71.03
12868;BME280;33517;49.866;8.320;2023-08-06T12:19:58;99532.59;;;19.70;70.42
12868;BME280;33517;49.866;8.320;2023-08-06T12:22:50;99540.81;;;19.85;69.72
12868;BME280;33517;49.866;8.320;2023-08-06T12:25:42;99528.09;;;19.92;68.99
12868;BME280;33517;49.866;8.320;2023-08-06T12:28:35;99540.25;;;19.83;69.72
12868;BME280;33517;49.866;8.320;2023-08-06T12:31:27;99542.13;;;19.66;70.92
12868;BME280;33517;49.866;8.320;2023-08-06T12:34:19;99548.63;;;19.54;69.95
12868;BME280;33517;49.866;8.320;2023-08-06T12:37:12;99556.31;;;19.34;71.21
12868;BME280;33517;49.866;8.320;2023-08-06T12:40:06;99549.94;;;19.06;69.55
12868;BME280;33517;49.866;8.320;2023-08-06T12:42:58;99568.41;;;18.80;70.77
12868;BME280;33517;49.866;8.320;2023-08-06T12:45:50;99563.66;;;18.82;71.76
12868;BME280;33517;49.866;8.320;2023-08-06T12:48:42;99565.81;;;18.57;72.53
12868;BME280;33517;49.866;8.320;2023-08-06T12:51:34;99562.38;;;18.56;72.60
12868;BME280;33517;49.866;8.320;2023-08-06T12:54:27;99573.03;;;18.56;72.53
12868;BME280;33517;49.866;8.320;2023-08-06T12:57:20;99580.66;;;18.53;72.53
12868;BME280;33517;49.866;8.320;2023-08-06T13:00:12;99581.31;;;18.71;72.71
12868;BME280;33517;49.866;8.320;2023-08-06T13:03:04;99580.94;;;18.79;70.29
12868;BME280;33517;49.866;8.320;2023-08-06T13:05:55;99587.97;;;18.85;69.95
12868;BME280;33517;49.866;8.320;2023-08-06T13:08:48;99606.00;;;18.95;69.03
12868;BME280;33517;49.866;8.320;2023-08-06T13:11:41;99602.25;;;19.07;69.19
12868;BME280;33517;49.866;8.320;2023-08-06T13:14:36;99610.09;;;19.14;68.15
12868;BME280;33517;49.866;8.320;2023-08-06T13:17:28;99603.56;;;19.21;67.51
12868;BME280;33517;49.866;8.320;2023-08-06T13:20:20;99592.38;;;19.36;67.98
12868;BME280;33517;49.866;8.320;2023-08-06T13:23:13;99620.13;;;19.68;65.75
12868;BME280;33517;49.866;8.320;2023-08-06T13:26:07;99612.00;;;19.96;65.50
12868;BME280;33517;49.866;8.320;2023-08-06T13:29:00;99626.00;;;20.20;64.49
12868;BME280;33517;49.866;8.320;2023-08-06T13:31:52;99628.50;;;20.48;62.63
12868;BME280;33517;49.866;8.320;2023-08-06T13:34:44;99636.22;;;20.66;62.57
12868;BME280;33517;49.866;8.320;2023-08-06T13:37:36;99639.94;;;20.22;64.69
12868;BME280;33517;49.866;8.320;2023-08-06T13:40:28;99638.03;;;20.06;67.13
12868;BME280;33517;49.866;8.320;2023-08-06T13:43:20;99636.78;;;20.47;66.73
12868;BME280;33517;49.866;8.320;2023-08-06T13:46:14;99635.72;;;20.91;64.76
12868;BME280;33517;49.866;8.320;2023-08-06T13:49:07;99653.28;;;20.82;63.63
12868;BME280;33517;49.866;8.320;2023-08-06T13:51:58;99650.09;;;20.85;62.58
12868;BME280;33517;49.866;8.320;2023-08-06T13:54:50;99666.88;;;20.59;64.82
12868;BME280;33517;49.866;8.320;2023-08-06T13:57:42;99663.69;;;20.62;65.53
12868;BME280;33517;49.866;8.320;2023-08-06T14:00:35;99663.72;;;20.24;65.98
12868;BME280;33517;49.866;8.320;2023-08-06T14:03:28;99676.75;;;19.87;68.91
12868;BME280;33517;49.866;8.320;2023-08-06T14:06:20;99663.47;;;19.75;70.11
12868;BME280;33517;49.866;8.320;2023-08-06T14:09:12;99678.66;;;19.42;72.33
12868;BME280;33517;49.866;8.320;2023-08-06T14:12:09;99684.66;;;19.20;74.45
12868;BME280;33517;49.866;8.320;2023-08-06T14:15:00;99669.88;;;19.01;74.82
12868;BME280;33517;49.866;8.320;2023-08-06T14:17:53;99674.63;;;18.99;76.61
12868;BME280;33517;49.866;8.320;2023-08-06T14:20:47;99685.97;;;19.06;75.85
12868;BME280;33517;49.866;8.320;2023-08-06T14:23:39;99682.53;;;19.22;75.48
12868;BME280;33517;49.866;8.320;2023-08-06T14:26:32;99677.91;;;19.18;75.71
12868;BME280;33517;49.866;8.320;2023-08-06T14:29:23;99688.41;;;19.08;75.59
12868;BME280;33517;49.866;8.320;2023-08-06T14:32:16;99676.72;;;18.97;76.42
12868;BME280;33517;49.866;8.320;2023-08-06T14:35:10;99697.97;;;18.92;74.88
12868;BME280;33517;49.866;8.320;2023-08-06T14:38:03;99686.72;;;18.90;75.15
12868;BME280;33517;49.866;8.320;2023-08-06T14:40:55;99701.78;;;18.96;73.85
12868;BME280;33517;49.866;8.320;2023-08-06T14:43:47;99700.41;;;18.82;73.37
12868;BME280;33517;49.866;8.320;2023-08-06T14:46:38;99706.13;;;18.74;73.91
12868;BME280;33517;49.866;8.320;2023-08-06T14:49:30;99706.63;;;18.48;73.26
12868;BME280;33517;49.866;8.320;2023-08-06T14:52:22;99711.81;;;18.20;73.96
12868;BME280;33517;49.866;8.320;2023-08-06T14:55:23;99710.97;;;17.96;75.75
12868;BME280;33517;49.866;8.320;2023-08-06T14:58:15;99718.63;;;17.93;76.13
12868;BME280;33517;49.866;8.320;2023-08-06T15:01:07;99713.53;;;17.91;75.92
12868;BME280;33517;49.866;8.320;2023-08-06T15:03:59;99724.75;;;17.82;76.75
12868;BME280;33517;49.866;8.320;2023-08-06T15:06:51;99731.59;;;17.60;77.60
12868;BME280;33517;49.866;8.320;2023-08-06T15:09:43;99742.41;;;17.46;78.45
12868;BME280;33517;49.866;8.320;2023-08-06T15:12:37;99730.66;;;17.36;79.61